M I D A S
Marine Information and Data Acquisition System
Tripno 976 of the Zeeleeuw from 2005-10-21 06:37:41 to 2005-10-21 11:33:22
Back to CruiseResearch ActivitiesStationsMapUnderway DataData graphs

EquipmentUnitsComment
TimeDGPSUTC
LatitudeDGPSDM.mWGS84
LongitudeDGPSDM.mWGS84
TemperatureSBE03/SBE38deg celciusITS90
ConductivitySBE21S/mITS90
SalinitySBE21 Practical Salinity Units
ChlorophylAChelsea fluorimeterg/lCalibrated in Aceton
Missing or incorrect values are displayed as -999
Sea surface data collected by the RV Zeeleeuw from 2005-10-21 06:38:08 to 2005-10-21 11:34:33
Time Latitude Longitude Temperature Conductivity Salinity ChlorophylA
2005-10-21 06:39:13 51°13.615 2°56.039 -999 0.082367 0.403537 -1.185762
2005-10-21 06:40:13 51°13.623 2°55.996 -999 0.082367 0.403544 -1.185762
2005-10-21 06:41:13 51°13.65 2°55.928 -999 0.082367 0.403544 -1.185762
2005-10-21 06:42:13 51°13.691 2°55.821 -999 0.082367 0.403537 -1.185762
2005-10-21 06:43:13 51°13.703 2°55.759 -999 0.082367 0.403537 -1.219471
2005-10-21 06:44:13 51°13.695 2°55.741 -999 0.082367 0.403525 -1.185762
2005-10-21 06:45:13 51°13.733 2°55.71 -999 0.082367 0.403531 -1.185762
2005-10-21 06:46:13 51°13.856 2°55.611 -999 0.082367 0.403556 -1.185762
2005-10-21 06:47:13 51°14.005 2°55.508 -999 0.082367 0.40355 -1.185762
2005-10-21 06:48:13 51°14.163 2°55.383 -999 0.082367 0.403544 -1.219471
2005-10-21 06:49:13 51°14.306 2°55.169 -999 0.082367 0.403544 -1.219471
2005-10-21 06:50:13 51°14.391 2°54.854 -999 0.082367 0.403537 -1.219471
2005-10-21 06:51:13 51°14.453 2°54.502 -999 0.082367 0.403544 -1.219471
2005-10-21 06:52:13 51°14.48 2°54.141 -999 0.082367 0.403556 -1.219471
2005-10-21 06:53:13 51°14.391 2°53.812 -999 0.082367 0.403544 -1.185762
2005-10-21 06:54:13 51°14.252 2°53.529 -999 0.082367 0.403562 -1.185762
2005-10-21 06:55:13 51°14.071 2°53.313 -999 0.082367 0.403556 -1.185762
2005-10-21 06:56:13 51°13.871 2°53.152 -999 0.082367 0.403556 -1.219471
2005-10-21 06:57:13 51°13.691 2°52.936 -999 0.082367 0.403556 -1.219471
2005-10-21 06:58:13 51°13.568 2°52.625 -999 0.082367 0.403568 -1.185762
2005-10-21 06:59:13 51°13.448 2°52.307 -999 0.082367 0.403556 -1.185762
2005-10-21 07:00:13 51°13.338 2°51.981 -999 0.082367 0.403568 -1.219471
2005-10-21 07:01:13 51°13.228 2°51.658 -999 0.082367 0.403574 -1.185762
2005-10-21 07:02:13 51°13.118 2°51.338 -999 0.082367 0.40358 -1.185762
2005-10-21 07:03:13 51°13.006 2°51.014 -999 0.082367 0.403593 -1.219471
2005-10-21 07:04:13 51°12.895 2°50.697 -999 0.082367 0.403593 -1.219471
2005-10-21 07:05:13 51°12.787 2°50.373 -999 0.082367 0.403617 -1.219471
2005-10-21 07:06:13 51°12.679 2°50.048 -999 0.082367 0.403635 -1.219471
2005-10-21 07:07:13 51°12.572 2°49.722 -999 0.082367 0.403654 -1.185762
2005-10-21 07:08:13 51°12.464 2°49.396 -999 0.082367 0.403672 -1.219471
2005-10-21 07:09:13 51°12.357 2°49.069 -999 0.082367 0.403697 -1.219471
2005-10-21 07:10:13 51°12.248 2°48.742 -999 0.082367 0.403721 -1.219471
2005-10-21 07:11:13 51°12.139 2°48.415 -999 0.082367 0.403752 -1.219471
2005-10-21 07:12:13 51°12.031 2°48.086 -999 0.082367 0.403777 -1.185762
2005-10-21 07:13:13 51°11.931 2°47.75 -999 0.082367 0.403801 -1.185762
2005-10-21 07:14:13 51°11.831 2°47.414 -999 0.082367 0.403813 -1.219471
2005-10-21 07:15:13 51°11.736 2°47.075 -999 0.082367 0.403832 -1.185762
2005-10-21 07:16:13 51°11.649 2°46.729 -999 0.082367 0.403856 -1.219471
2005-10-21 07:17:13 51°11.564 2°46.38 -999 0.082367 0.403881 -1.219471
2005-10-21 07:18:13 51°11.479 2°46.032 -999 0.082367 0.403893 -1.219471
2005-10-21 07:19:13 51°11.408 2°45.675 -999 0.082367 0.403918 -1.219471
2005-10-21 07:20:13 51°11.337 2°45.317 -999 0.082367 0.40393 -1.185762
2005-10-21 07:21:13 51°11.266 2°44.959 -999 0.082367 0.403942 -1.219471
2005-10-21 07:22:13 51°11.199 2°44.6 -999 0.082367 0.403961 -1.185762
2005-10-21 07:23:13 51°11.138 2°44.237 -999 0.082367 0.403979 -1.219471
2005-10-21 07:24:13 51°11.077 2°43.875 -999 0.082367 0.403998 -1.185762
2005-10-21 07:25:13 51°11.016 2°43.513 -999 0.082367 0.404022 -1.185762
2005-10-21 07:26:13 51°10.956 2°43.151 -999 0.082367 0.404053 -1.219471
2005-10-21 07:27:13 51°10.895 2°42.79 -999 0.082367 0.404084 -1.219471
2005-10-21 07:28:13 51°10.835 2°42.428 -999 0.082367 0.404114 -1.219471
2005-10-21 07:29:13 51°10.776 2°42.066 -999 0.082367 0.404145 -1.185762
2005-10-21 07:30:13 51°10.716 2°41.703 -999 0.082367 0.404182 -1.219471
2005-10-21 07:31:13 51°10.658 2°41.338 -999 0.082367 0.404213 -1.185762
2005-10-21 07:32:13 51°10.599 2°40.974 -999 0.082367 0.404237 -1.219471
2005-10-21 07:33:13 51°10.54 2°40.609 -999 0.082367 0.404268 -1.219471
2005-10-21 07:34:13 51°10.483 2°40.243 -999 0.082367 0.404299 -1.219471
2005-10-21 07:35:13 51°10.425 2°39.876 -999 0.082367 0.404336 -1.219471
2005-10-21 07:36:13 51°10.369 2°39.509 -999 0.082264 0.40387 -1.219471
2005-10-21 07:37:13 51°10.312 2°39.142 -999 0.082264 0.403919 -1.185762
2005-10-21 07:38:13 51°10.255 2°38.775 -999 0.082264 0.403956 -1.219471
2005-10-21 07:39:13 51°10.198 2°38.408 -999 0.082264 0.40398 -1.185762
2005-10-21 07:40:13 51°10.142 2°38.041 -999 0.082264 0.404011 -1.219471
2005-10-21 07:41:13 51°10.085 2°37.675 -999 0.082264 0.404048 -1.185762
2005-10-21 07:42:13 51°10.029 2°37.31 -999 0.082264 0.404085 -1.219471
2005-10-21 07:43:13 51°9.984 2°36.94 -999 0.082264 0.40414 -1.219471
2005-10-21 07:44:13 51°9.984 2°36.562 -999 0.082161 0.403662 -1.185762
2005-10-21 07:45:13 51°9.995 2°36.185 -999 0.082161 0.403699 -1.219471
2005-10-21 07:46:13 51°10.056 2°35.834 -999 0.082161 0.403772 -1.185762
2005-10-21 07:47:13 51°10.249 2°35.757 -999 0.082161 0.403797 -1.219471
2005-10-21 07:48:13 51°10.416 2°35.932 -999 0.082161 0.403822 -1.185762
2005-10-21 07:49:13 51°10.584 2°36.114 -999 0.082161 0.403902 -1.219471
2005-10-21 07:50:13 51°10.759 2°36.285 -999 0.082161 0.403951 -1.219471
2005-10-21 07:51:13 51°10.935 2°36.454 -999 0.082161 0.403988 -1.219471
2005-10-21 07:52:13 51°11.111 2°36.621 -999 0.082161 0.404025 -1.219471
2005-10-21 07:53:13 51°11.286 2°36.789 -999 0.082161 0.404074 -1.219471
2005-10-21 07:54:13 51°11.462 2°36.954 -999 0.082161 0.404118 -1.219471
2005-10-21 07:55:13 51°11.639 2°37.118 -999 0.082161 0.404155 -1.219471
2005-10-21 07:56:13 51°11.814 2°37.28 -999 0.082161 0.404179 -1.219471
2005-10-21 07:57:13 51°11.99 2°37.443 -999 0.082161 0.404204 -1.219471
2005-10-21 07:58:13 51°12.165 2°37.607 -999 0.082161 0.404241 -1.185762
2005-10-21 07:59:13 51°12.341 2°37.769 -999 0.082161 0.404272 -1.219471
2005-10-21 08:00:13 51°12.516 2°37.931 -999 0.082161 0.404309 -1.219471
2005-10-21 08:01:13 51°12.693 2°38.095 -999 0.082161 0.40434 -1.219471
2005-10-21 08:02:13 51°12.876 2°38.237 -999 0.082264 0.404881 -1.219471
2005-10-21 08:03:13 51°13.062 2°38.376 -999 0.082161 0.404377 -1.219471
2005-10-21 08:04:13 51°13.249 2°38.516 -999 0.082264 0.404937 -1.219471
2005-10-21 08:05:13 51°13.438 2°38.647 -999 0.082264 0.404968 -1.219471
2005-10-21 08:06:13 51°13.63 2°38.768 -999 0.082264 0.405005 -1.219471
2005-10-21 08:07:13 51°13.836 2°38.822 -999 0.082264 0.40503 -1.219471
2005-10-21 08:08:13 51°14.046 2°38.81 -999 0.082264 0.405042 -1.219471
2005-10-21 08:09:13 51°14.207 2°38.584 -999 0.082264 0.405048 -1.219471
2005-10-21 08:10:13 51°14.212 2°38.224 -999 0.082264 0.405061 -1.219471
2005-10-21 08:11:13 51°14.133 2°37.878 -999 0.082264 0.405104 -1.219471
2005-10-21 08:12:13 51°14.02 2°37.549 -999 0.082264 0.405135 -1.219471
2005-10-21 08:13:13 51°13.92 2°37.209 -999 0.082264 0.405172 -1.219471
2005-10-21 08:14:13 51°13.821 2°36.866 -999 0.082264 0.405191 -1.219471
2005-10-21 08:15:13 51°13.723 2°36.523 -999 0.082264 0.405172 -1.219471
2005-10-21 08:16:13 51°13.626 2°36.178 -999 0.082264 0.405216 -1.219471
2005-10-21 08:17:13 51°13.529 2°35.834 -999 0.082264 0.405296 -1.219471
2005-10-21 08:18:13 51°13.431 2°35.491 -999 0.082264 0.405383 -1.219471
2005-10-21 08:19:13 51°13.332 2°35.149 -999 0.082161 0.40494 -1.219471
2005-10-21 08:20:13 51°13.234 2°34.806 -999 0.082161 0.405015 -1.219471
2005-10-21 08:21:13 51°13.134 2°34.465 -999 0.082161 0.405083 -1.219471
2005-10-21 08:22:13 51°13.035 2°34.125 -999 0.082058 0.404621 -1.219471
2005-10-21 08:23:13 51°12.935 2°33.786 -999 0.082058 0.404677 -1.219471
2005-10-21 08:24:13 51°12.834 2°33.447 -999 0.082058 0.404757 -1.219471
2005-10-21 08:25:13 51°12.732 2°33.11 -999 0.081955 0.40432 -1.219471
2005-10-21 08:26:13 51°12.629 2°32.772 -999 0.081955 0.404407 -1.219471
2005-10-21 08:27:13 51°12.528 2°32.435 -999 0.081853 0.403988 -1.219471
2005-10-21 08:28:13 51°12.435 2°32.091 -999 0.081853 0.4041 -1.219471
2005-10-21 08:29:13 51°12.34 2°31.747 -999 0.081853 0.404205 -1.219471
2005-10-21 08:30:13 51°12.245 2°31.402 -999 0.08175 0.403817 -1.219471
2005-10-21 08:31:13 51°12.152 2°31.055 -999 0.08175 0.403997 -1.219471
2005-10-21 08:32:13 51°12.057 2°30.707 -999 0.08175 0.404071 -1.219471
2005-10-21 08:33:13 51°11.961 2°30.36 -999 0.08175 0.404196 -1.219471
2005-10-21 08:34:13 51°11.866 2°30.011 -999 0.08175 0.404339 -1.219471
2005-10-21 08:35:13 51°11.771 2°29.661 -999 0.081647 0.403993 -1.219471
2005-10-21 08:36:13 51°11.679 2°29.307 -999 0.081647 0.404105 -1.219471
2005-10-21 08:37:13 51°11.607 2°28.937 -999 0.081647 0.404211 -1.219471
2005-10-21 08:38:13 51°11.537 2°28.563 -999 0.081647 0.404361 -1.219471
2005-10-21 08:39:13 51°11.476 2°28.184 -999 0.081647 0.404498 -1.219471
2005-10-21 08:40:13 51°11.423 2°27.798 -999 0.081544 0.404109 -1.219471
2005-10-21 08:41:13 51°11.372 2°27.414 -999 0.081544 0.40424 -1.219471
2005-10-21 08:42:13 51°11.322 2°27.033 -999 0.081544 0.404352 -1.219471
2005-10-21 08:43:13 51°11.27 2°26.653 -999 0.081441 0.403981 -1.219471
2005-10-21 08:44:13 51°11.22 2°26.273 -999 0.081441 0.404137 -1.219471
2005-10-21 08:45:13 51°11.171 2°25.894 -999 0.081441 0.4043 -1.219471
2005-10-21 08:46:13 51°11.177 2°25.518 -999 0.081338 0.40391 -1.219471
2005-10-21 08:47:13 51°11.334 2°25.278 -999 0.081338 0.404066 -1.219471
2005-10-21 08:48:13 51°11.536 2°25.237 -999 0.081235 0.403701 -1.219471
2005-10-21 08:49:13 51°11.71 2°25.386 -999 0.081235 0.403813 -1.219471
2005-10-21 08:50:13 51°11.871 2°25.57 -999 0.081235 0.403945 -1.219471
2005-10-21 08:51:13 51°12.019 2°25.776 -999 0.081132 0.403492 -1.219471
2005-10-21 08:52:13 51°12.167 2°25.985 -999 0.081132 0.403554 -1.219471
2005-10-21 08:53:13 51°12.317 2°26.19 -999 0.081132 0.403617 -1.219471
2005-10-21 08:54:13 51°12.469 2°26.393 -999 0.08103 0.403138 -1.219471
2005-10-21 08:55:13 51°12.625 2°26.586 -999 0.08103 0.403169 -1.219471
2005-10-21 08:56:13 51°12.779 2°26.784 -999 0.08103 0.403201 -1.219471
2005-10-21 08:57:13 51°12.934 2°26.978 -999 0.08103 0.403245 -1.219471
2005-10-21 08:58:13 51°13.09 2°27.171 -999 0.08103 0.403295 -1.219471
2005-10-21 08:59:13 51°13.245 2°27.369 -999 0.080927 0.402797 -1.219471
2005-10-21 09:00:13 51°13.397 2°27.571 -999 0.080927 0.402835 -1.219471
2005-10-21 09:01:13 51°13.547 2°27.772 -999 0.080927 0.402878 -1.219471
2005-10-21 09:02:13 51°13.698 2°27.977 -999 0.080927 0.402916 -1.219471
2005-10-21 09:03:13 51°13.85 2°28.179 -999 0.080927 0.402953 -1.219471
2005-10-21 09:04:13 51°14 2°28.384 -999 0.080927 0.402985 -1.219471
2005-10-21 09:05:13 51°14.15 2°28.589 -999 0.080927 0.403016 -1.219471
2005-10-21 09:06:13 51°14.3 2°28.796 -999 0.080927 0.40306 -1.219471
2005-10-21 09:07:13 51°14.451 2°29.001 -999 0.080927 0.403098 -1.219471
2005-10-21 09:08:13 51°14.601 2°29.204 -999 0.080927 0.403141 -1.253181
2005-10-21 09:09:13 51°14.752 2°29.406 -999 0.080927 0.403179 -1.253181
2005-10-21 09:10:13 51°14.905 2°29.605 -999 0.080927 0.403223 -1.253181
2005-10-21 09:11:13 51°15.057 2°29.807 -999 0.080927 0.403254 -1.253181
2005-10-21 09:12:13 51°15.21 2°30.004 -999 0.080927 0.403292 -1.253181
2005-10-21 09:13:13 51°15.361 2°30.201 -999 0.080927 0.403336 -1.253181
2005-10-21 09:14:13 51°15.51 2°30.404 -999 0.080927 0.403367 -1.253181
2005-10-21 09:15:13 51°15.662 2°30.6 -999 0.080927 0.403405 -1.253181
2005-10-21 09:16:13 51°15.813 2°30.795 -999 0.080927 0.403449 -1.253181
2005-10-21 09:17:13 51°15.964 2°30.993 -999 0.080927 0.403493 -1.253181
2005-10-21 09:18:13 51°16.114 2°31.19 -999 0.080927 0.403524 -1.253181
2005-10-21 09:19:13 51°16.264 2°31.391 -999 0.080927 0.403562 -1.253181
2005-10-21 09:20:13 51°16.415 2°31.592 -999 0.080927 0.403599 -1.253181
2005-10-21 09:21:13 51°16.566 2°31.794 -999 0.080927 0.403637 -1.253181
2005-10-21 09:22:13 51°16.715 2°31.999 -999 0.080927 0.403669 -1.253181
2005-10-21 09:23:13 51°16.867 2°32.2 -999 0.080927 0.403713 -1.253181
2005-10-21 09:24:13 51°17.018 2°32.398 -999 0.080927 0.403744 -1.253181
2005-10-21 09:25:13 51°17.167 2°32.597 -999 0.080927 0.403769 -1.253181
2005-10-21 09:26:13 51°17.319 2°32.798 -999 0.080927 0.403807 -1.253181
2005-10-21 09:27:13 51°17.47 2°32.996 -999 0.080927 0.403845 -1.253181
2005-10-21 09:28:13 51°17.619 2°33.189 -999 0.080927 0.403876 -1.253181
2005-10-21 09:29:13 51°17.77 2°33.379 -999 0.080927 0.40392 -1.253181
2005-10-21 09:30:13 51°17.922 2°33.571 -999 0.080927 0.403945 -1.253181
2005-10-21 09:31:13 51°18.071 2°33.767 -999 0.080927 0.403983 -1.253181
2005-10-21 09:32:13 51°18.221 2°33.959 -999 0.080927 0.404008 -1.253181
2005-10-21 09:33:13 51°18.371 2°34.146 -999 0.08103 0.404577 -1.253181
2005-10-21 09:34:13 51°18.519 2°34.338 -999 0.08103 0.404602 -1.253181
2005-10-21 09:35:13 51°18.668 2°34.531 -999 0.08103 0.404633 -1.253181
2005-10-21 09:36:13 51°18.817 2°34.724 -999 0.08103 0.404665 -1.253181
2005-10-21 09:37:13 51°18.966 2°34.913 -999 0.08103 0.404697 -1.253181
2005-10-21 09:38:13 51°19.114 2°35.108 -999 0.08103 0.404722 -1.253181
2005-10-21 09:39:13 51°19.263 2°35.298 -999 0.08103 0.404753 -1.253181
2005-10-21 09:40:13 51°19.411 2°35.487 -999 0.081132 0.405316 -1.253181
2005-10-21 09:41:13 51°19.56 2°35.679 -999 0.081132 0.405341 -1.253181
2005-10-21 09:42:13 51°19.709 2°35.872 -999 0.081132 0.405373 -1.253181
2005-10-21 09:43:13 51°19.856 2°36.066 -999 0.081132 0.405411 -1.253181
2005-10-21 09:44:13 51°20.006 2°36.254 -999 0.081132 0.405436 -1.253181
2005-10-21 09:45:13 51°20.157 2°36.442 -999 0.081132 0.405461 -1.253181
2005-10-21 09:46:13 51°20.306 2°36.641 -999 0.081132 0.405474 -1.253181
2005-10-21 09:47:13 51°20.455 2°36.836 -999 0.081235 0.406031 -1.253181
2005-10-21 09:48:13 51°20.55 2°37.087 -999 0.081235 0.406056 -1.253181
2005-10-21 09:49:13 51°20.574 2°37.391 -999 0.081235 0.406075 -1.253181
2005-10-21 09:50:13 51°20.595 2°37.7 -999 0.081235 0.4061 -1.253181
2005-10-21 09:51:13 51°20.61 2°38.007 -999 0.081235 0.406126 -1.253181
2005-10-21 09:52:13 51°20.621 2°38.316 -999 0.081235 0.40617 -1.253181
2005-10-21 09:53:13 51°20.632 2°38.623 -999 0.081338 0.406721 -1.28689
2005-10-21 09:54:13 51°20.629 2°38.932 -999 0.081338 0.406765 -1.253181
2005-10-21 09:55:13 51°20.623 2°39.241 -999 0.081338 0.406816 -1.253181
2005-10-21 09:56:13 51°20.619 2°39.555 -999 0.081338 0.406848 -1.253181
2005-10-21 09:57:13 51°20.615 2°39.868 -999 0.081338 0.406892 -1.253181
2005-10-21 09:58:13 51°20.613 2°40.181 -999 0.081338 0.406937 -1.253181
2005-10-21 09:59:13 51°20.61 2°40.498 -999 0.081338 0.406981 -1.253181
2005-10-21 10:00:13 51°20.611 2°40.809 -999 0.081338 0.407013 -1.253181
2005-10-21 10:01:13 51°20.615 2°41.113 -999 0.081235 0.40652 -1.253181
2005-10-21 10:02:13 51°20.618 2°41.422 -999 0.081235 0.406551 -1.253181
2005-10-21 10:03:13 51°20.622 2°41.732 -999 0.081235 0.406577 -1.253181
2005-10-21 10:04:13 51°20.621 2°42.042 -999 0.081235 0.406609 -1.253181
2005-10-21 10:05:13 51°20.622 2°42.344 -999 0.081235 0.40664 -1.253181
2005-10-21 10:06:13 51°20.62 2°42.646 -999 0.081235 0.406679 -1.253181
2005-10-21 10:07:13 51°20.617 2°42.951 -999 0.081235 0.40671 -1.253181
2005-10-21 10:08:13 51°20.615 2°43.254 -999 0.081235 0.406761 -1.253181
2005-10-21 10:09:13 51°20.613 2°43.558 -999 0.081235 0.406806 -1.253181
2005-10-21 10:10:13 51°20.611 2°43.865 -999 0.081235 0.40687 -1.253181
2005-10-21 10:11:13 51°20.609 2°44.169 -999 0.081235 0.406933 -1.253181
2005-10-21 10:12:13 51°20.607 2°44.478 -999 0.081235 0.406984 -1.253181
2005-10-21 10:13:13 51°20.605 2°44.785 -999 0.081235 0.407023 -1.253181
2005-10-21 10:14:13 51°20.605 2°45.092 -999 0.081235 0.407086 -1.253181
2005-10-21 10:15:13 51°20.605 2°45.398 -999 0.081235 0.407144 -1.253181
2005-10-21 10:16:13 51°20.6 2°45.704 -999 0.081235 0.407201 -1.253181
2005-10-21 10:17:13 51°20.593 2°46.013 -999 0.081235 0.407272 -1.253181
2005-10-21 10:18:13 51°20.586 2°46.322 -999 0.081235 0.407323 -1.253181
2005-10-21 10:19:13 51°20.58 2°46.634 -999 0.081133 0.406828 -1.253181
2005-10-21 10:20:13 51°20.572 2°46.944 -999 0.081133 0.406866 -1.28689
2005-10-21 10:21:13 51°20.562 2°47.253 -999 0.081133 0.40693 -1.253181
2005-10-21 10:22:13 51°20.554 2°47.562 -999 0.081133 0.407 -1.253181
2005-10-21 10:23:13 51°20.543 2°47.87 -999 0.081133 0.407051 -1.253181
2005-10-21 10:24:13 51°20.532 2°48.178 -999 0.081133 0.407109 -1.253181
2005-10-21 10:25:13 51°20.445 2°48.452 -999 0.081133 0.407141 -1.253181
2005-10-21 10:26:13 51°20.262 2°48.603 -999 0.081133 0.407218 -1.253181
2005-10-21 10:27:13 51°20.037 2°48.567 -999 0.081133 0.407301 -1.253181
2005-10-21 10:28:13 51°19.833 2°48.369 -999 0.081133 0.407416 -1.253181
2005-10-21 10:29:13 51°19.642 2°48.134 -999 0.081133 0.407538 -1.253181
2005-10-21 10:30:13 51°19.45 2°47.898 -999 0.081133 0.407621 -1.253181
2005-10-21 10:31:13 51°19.26 2°47.666 -999 0.081133 0.407666 -1.253181
2005-10-21 10:32:13 51°19.071 2°47.433 -999 0.08103 0.407183 -1.253181
2005-10-21 10:33:13 51°18.883 2°47.199 -999 0.08103 0.407241 -1.253181
2005-10-21 10:34:13 51°18.692 2°46.969 -999 0.08103 0.407286 -1.253181
2005-10-21 10:35:13 51°18.504 2°46.741 -999 0.08103 0.40735 -1.253181
2005-10-21 10:36:13 51°18.316 2°46.511 -999 0.08103 0.407414 -1.253181
2005-10-21 10:37:13 51°18.127 2°46.279 -999 0.08103 0.407472 -1.253181
2005-10-21 10:38:13 51°17.94 2°46.049 -999 0.08103 0.407536 -1.253181
2005-10-21 10:39:13 51°17.754 2°45.823 -999 0.08103 0.407581 -1.253181
2005-10-21 10:40:13 51°17.567 2°45.596 -999 0.08103 0.407632 -1.253181
2005-10-21 10:41:13 51°17.381 2°45.371 -999 0.08103 0.407703 -1.253181
2005-10-21 10:42:13 51°17.195 2°45.146 -999 0.08103 0.407773 -1.253181
2005-10-21 10:43:13 51°17.01 2°44.923 -999 0.08103 0.407838 -1.253181
2005-10-21 10:44:13 51°16.826 2°44.701 -999 0.08103 0.407896 -1.253181
2005-10-21 10:45:13 51°16.642 2°44.479 -999 0.080927 0.407418 -1.253181
2005-10-21 10:46:13 51°16.457 2°44.265 -999 0.080927 0.407476 -1.253181
2005-10-21 10:47:13 51°16.263 2°44.071 -999 0.080927 0.407541 -1.253181
2005-10-21 10:48:13 51°16.046 2°43.964 -999 0.080927 0.407586 -1.253181
2005-10-21 10:49:13 51°15.827 2°43.98 -999 0.080927 0.407656 -1.253181
2005-10-21 10:50:13 51°15.696 2°44.226 -999 0.080927 0.407721 -1.253181
2005-10-21 10:51:13 51°15.67 2°44.552 -999 0.080927 0.407798 -1.253181
2005-10-21 10:52:13 51°15.656 2°44.88 -999 0.080927 0.407914 -1.253181
2005-10-21 10:53:13 51°15.642 2°45.215 -999 0.080927 0.407998 -1.253181
2005-10-21 10:54:13 51°15.627 2°45.548 -999 0.080824 0.407546 -1.28689
2005-10-21 10:55:13 51°15.62 2°45.879 -999 0.080824 0.407616 -1.253181
2005-10-21 10:56:13 51°15.612 2°46.213 -999 0.080824 0.407687 -1.253181
2005-10-21 10:57:13 51°15.606 2°46.544 -999 0.080824 0.407739 -1.253181
2005-10-21 10:58:13 51°15.598 2°46.872 -999 0.080824 0.407803 -1.253181
2005-10-21 10:59:13 51°15.591 2°47.198 -999 0.080824 0.407868 -1.253181
2005-10-21 11:00:13 51°15.582 2°47.525 -999 0.080824 0.40792 -1.253181
2005-10-21 11:01:13 51°15.573 2°47.852 -999 0.080824 0.407971 -1.253181
2005-10-21 11:02:13 51°15.562 2°48.179 -999 0.080721 0.40748 -1.253181
2005-10-21 11:03:13 51°15.55 2°48.509 -999 0.080721 0.407531 -1.253181
2005-10-21 11:04:13 51°15.54 2°48.84 -999 0.080721 0.40759 -1.253181
2005-10-21 11:05:13 51°15.532 2°49.175 -999 0.080721 0.407648 -1.253181
2005-10-21 11:06:13 51°15.524 2°49.513 -999 0.080721 0.407699 -1.253181
2005-10-21 11:07:13 51°15.516 2°49.848 -999 0.080721 0.407745 -1.253181
2005-10-21 11:08:13 51°15.507 2°50.183 -999 0.080721 0.407803 -1.253181
2005-10-21 11:09:13 51°15.499 2°50.518 -999 0.080721 0.407848 -1.253181
2005-10-21 11:10:13 51°15.473 2°50.848 -999 0.080618 0.407356 -1.253181
2005-10-21 11:11:13 51°15.443 2°51.179 -999 0.080618 0.407401 -1.253181
2005-10-21 11:12:13 51°15.364 2°51.488 -999 0.080618 0.407421 -1.253181
2005-10-21 11:13:13 51°15.252 2°51.766 -999 0.080618 0.407472 -1.253181
2005-10-21 11:14:13 51°15.14 2°52.044 -999 0.080618 0.407511 -1.253181
2005-10-21 11:15:13 51°15.047 2°52.338 -999 0.080618 0.407543 -1.28689
2005-10-21 11:16:13 51°14.961 2°52.641 -999 0.080618 0.407589 -1.253181
2005-10-21 11:17:13 51°14.876 2°52.943 -999 0.080515 0.407103 -1.253181
2005-10-21 11:18:13 51°14.788 2°53.245 -999 0.080515 0.407174 -1.253181
2005-10-21 11:19:13 51°14.706 2°53.545 -999 0.080515 0.407232 -1.253181
2005-10-21 11:20:13 51°14.637 2°53.809 -999 0.080515 0.407278 -1.253181
2005-10-21 11:21:13 51°14.571 2°54.128 -999 0.080515 0.407323 -1.253181
2005-10-21 11:22:13 51°14.504 2°54.444 -999 0.080515 0.407394 -1.253181
2005-10-21 11:23:13 51°14.437 2°54.762 -999 0.080412 0.406927 -1.253181
2005-10-21 11:24:13 51°14.355 2°55.067 -999 0.080412 0.407018 -1.253181
2005-10-21 11:25:13 51°14.233 2°55.307 -999 0.080412 0.407102 -1.28689
2005-10-21 11:26:13 51°14.102 2°55.43 -999 0.080412 0.407179 -1.253181
2005-10-21 11:27:13 51°13.991 2°55.511 -999 0.080412 0.407225 -1.253181
2005-10-21 11:28:13 51°13.871 2°55.601 -999 0.080412 0.407251 -1.253181
2005-10-21 11:29:13 51°13.764 2°55.707 -999 0.080412 0.407296 -1.253181
2005-10-21 11:30:13 51°13.695 2°55.827 -999 0.080412 0.407335 -1.253181
2005-10-21 11:31:13 51°13.643 2°55.942 -999 0.080412 0.407406 -1.253181
2005-10-21 11:32:13 51°13.616 2°56.042 -999 0.08031 0.406945 -1.253181
2005-10-21 11:33:13 51°13.607 2°56.087 -999 0.08031 0.407004 -1.253181
2005-10-21 11:34:13 51°13.601 2°56.099 -999 0.08031 0.407094 -1.253181